createdAt,value
2022-12-15T00:33:32.589Z,85.05
2022-12-15T00:36:09.590Z,79.30
2022-12-15T00:38:38.519Z,84.20
2022-12-15T00:41:07.293Z,84.40
2022-12-15T00:43:42.508Z,74.80
2022-12-15T00:46:24.925Z,82.60
2022-12-15T00:49:06.986Z,83.30
2022-12-15T00:51:43.647Z,83.55
2022-12-15T00:54:26.723Z,82.38
2022-12-15T00:57:03.987Z,82.82
2022-12-15T00:59:44.975Z,88.75
2022-12-15T01:02:28.280Z,89.32
2022-12-15T01:05:12.677Z,87.57
2022-12-15T01:07:44.602Z,92.97
2022-12-15T01:10:26.506Z,92.40
2022-12-15T01:12:59.473Z,94.88
2022-12-15T01:15:30.016Z,100.07
2022-12-15T01:17:56.763Z,101.03
2022-12-15T01:20:24.801Z,96.68
2022-12-15T01:22:53.165Z,96.47
2022-12-15T01:25:21.699Z,95.30
2022-12-15T01:27:48.321Z,100.65
2022-12-15T01:30:17.978Z,100.15
2022-12-15T01:35:13.939Z,95.55
2022-12-15T01:37:42.012Z,93.88
2022-12-15T01:40:13.025Z,96.10
2022-12-15T01:42:39.749Z,92.03
2022-12-15T01:45:45.498Z,101.18
2022-12-15T01:48:14.990Z,112.80
2022-12-15T01:50:45.861Z,104.95
2022-12-15T01:53:14.719Z,111.07
2022-12-15T01:55:44.294Z,113.43
2022-12-15T01:58:16.877Z,108.22
2022-12-15T02:00:43.566Z,104.97
2022-12-15T02:03:10.918Z,99.80
2022-12-15T02:05:39.946Z,97.90
2022-12-15T02:08:07.602Z,96.97
2022-12-15T02:10:48.974Z,102.32
2022-12-15T02:13:24.531Z,93.53
2022-12-15T02:15:59.338Z,86.72
2022-12-15T02:18:32.137Z,82.95
2022-12-15T02:21:02.405Z,83.10
2022-12-15T02:24:02.742Z,86.95
2022-12-15T02:26:59.152Z,83.88
2022-12-15T02:29:49.204Z,84.28
2022-12-15T02:32:25.040Z,85.90
2022-12-15T02:34:56.128Z,81.72
2022-12-15T02:37:29.181Z,82.35
2022-12-15T02:39:55.810Z,83.22
2022-12-15T02:42:23.841Z,83.72
2022-12-15T02:44:55.475Z,86.75
2022-12-15T02:47:34.141Z,82.43
2022-12-15T02:50:16.901Z,78.72
2022-12-15T02:52:54.463Z,80.22
2022-12-15T02:55:34.229Z,75.68
2022-12-15T02:58:03.677Z,78.18
2022-12-15T03:00:33.228Z,77.35
2022-12-15T03:03:09.374Z,73.18
2022-12-15T03:05:39.660Z,80.25
2022-12-15T03:08:24.859Z,77.63
2022-12-15T03:10:56.909Z,73.93
2022-12-15T03:13:39.744Z,78.20
2022-12-15T03:16:29.614Z,75.60
2022-12-15T03:19:13.969Z,77.57
2022-12-15T03:22:00.907Z,74.70
2022-12-15T03:24:38.372Z,75.50
2022-12-15T03:27:36.342Z,76.93
2022-12-15T03:30:32.264Z,74.20
2022-12-15T03:33:06.418Z,78.18
2022-12-15T03:38:40.022Z,71.80
2022-12-15T03:41:28.717Z,73.93
2022-12-15T03:47:10.465Z,69.05
2022-12-15T03:49:45.729Z,70.22
2022-12-15T03:52:40.334Z,73.60
2022-12-15T03:55:13.520Z,70.43
2022-12-15T03:57:52.887Z,74.07
2022-12-15T04:00:44.548Z,75.85
2022-12-15T04:03:11.568Z,71.50
2022-12-15T04:05:41.563Z,79.35
2022-12-15T04:08:19.444Z,72.70
2022-12-15T04:10:55.902Z,76.25
2022-12-15T04:13:22.475Z,79.30
2022-12-15T04:15:49.107Z,82.70
2022-12-15T04:18:15.732Z,83.10
2022-12-15T04:20:42.357Z,81.60
2022-12-15T04:23:10.333Z,82.97
2022-12-15T04:25:37.258Z,86.70
2022-12-15T04:28:29.526Z,83.95
2022-12-15T04:31:18.424Z,83.47
2022-12-15T04:33:51.486Z,83.95
2022-12-15T04:36:19.505Z,83.38
2022-12-15T04:38:50.446Z,84.30
2022-12-15T04:41:24.946Z,80.15
2022-12-15T04:43:55.895Z,86.10
2022-12-15T04:46:29.307Z,77.80
2022-12-15T04:48:58.970Z,81.45
2022-12-15T04:54:51.450Z,77.57
2022-12-15T04:57:29.879Z,77.93
2022-12-15T05:00:06.147Z,78.90
2022-12-15T05:02:46.274Z,79.53
2022-12-15T05:05:19.967Z,85.07
2022-12-15T05:08:07.815Z,88.50
2022-12-15T05:10:41.397Z,90.00
2022-12-15T05:13:08.943Z,88.10
2022-12-15T05:15:35.851Z,89.82
2022-12-15T05:18:11.398Z,91.97
2022-12-15T05:20:50.299Z,90.93
2022-12-15T05:23:37.553Z,89.63
2022-12-15T05:26:05.994Z,85.38
2022-12-15T05:28:38.506Z,85.72
2022-12-15T05:31:06.625Z,87.60
2022-12-15T05:33:33.774Z,87.07
2022-12-15T05:36:00.706Z,92.78
2022-12-15T05:38:42.581Z,91.18
2022-12-15T05:41:19.126Z,93.70
2022-12-15T05:43:57.646Z,98.53
2022-12-15T05:46:33.738Z,91.30
2022-12-15T05:49:11.925Z,90.70
2022-12-15T05:51:39.657Z,94.95
2022-12-15T05:54:06.404Z,93.68
2022-12-15T05:56:35.314Z,95.70
2022-12-15T05:59:02.251Z,96.97
2022-12-15T06:01:29.420Z,94.78
2022-12-15T06:03:56.308Z,97.80
2022-12-15T06:06:22.920Z,98.43
2022-12-15T06:09:01.147Z,93.60
2022-12-15T06:11:43.218Z,92.93
2022-12-15T06:14:11.313Z,104.03
2022-12-15T06:16:51.070Z,90.55
2022-12-15T06:19:24.982Z,93.18
2022-12-15T06:21:55.779Z,90.20
2022-12-15T06:24:22.452Z,94.75
2022-12-15T06:26:49.561Z,92.90
2022-12-15T06:29:17.884Z,93.43
2022-12-15T06:31:44.641Z,92.80
2022-12-15T06:34:13.097Z,95.78
2022-12-15T06:36:40.343Z,91.95
2022-12-15T06:39:09.182Z,92.32
2022-12-15T06:41:55.360Z,96.70
2022-12-15T06:44:26.473Z,98.03
2022-12-15T06:46:57.304Z,86.82
2022-12-15T06:49:30.601Z,92.35
2022-12-15T06:52:04.020Z,93.65
2022-12-15T06:54:32.578Z,91.05
2022-12-15T06:57:07.147Z,92.38
2022-12-15T06:59:44.458Z,94.32
2022-12-15T07:02:26.914Z,92.40
2022-12-15T07:05:04.241Z,89.55
2022-12-15T07:07:37.095Z,86.55
2022-12-15T07:10:11.850Z,90.75
2022-12-15T07:12:55.294Z,90.95
2022-12-15T07:15:25.144Z,91.95
2022-12-15T07:17:57.772Z,89.60
2022-12-15T07:23:14.435Z,91.40
2022-12-15T07:25:52.385Z,85.20
2022-12-15T07:28:41.646Z,95.00
2022-12-15T07:31:20.573Z,95.60
2022-12-15T07:33:53.547Z,88.90
2022-12-15T07:36:28.367Z,83.13
2022-12-15T07:39:09.791Z,80.82
2022-12-15T07:41:51.380Z,75.05
2022-12-15T07:44:32.801Z,77.90
2022-12-15T07:47:13.945Z,82.72
2022-12-15T07:49:54.930Z,75.45
2022-12-15T07:52:38.943Z,82.32
2022-12-15T07:55:09.654Z,82.45
2022-12-15T07:57:39.035Z,83.90
2022-12-15T08:00:11.068Z,87.07
2022-12-15T08:02:42.406Z,95.95
2022-12-15T08:05:16.332Z,90.15
2022-12-15T08:07:47.406Z,94.28
2022-12-15T08:10:24.860Z,96.20
2022-12-15T08:12:58.375Z,96.78
2022-12-15T08:15:34.531Z,93.53
2022-12-15T08:18:06.414Z,92.45
2022-12-15T08:20:37.742Z,101.30
2022-12-15T08:23:15.945Z,95.18
2022-12-15T08:25:45.264Z,95.28
2022-12-15T08:28:14.287Z,83.03
2022-12-15T08:30:43.649Z,78.60
2022-12-15T08:33:17.307Z,79.47
2022-12-15T08:35:56.885Z,90.18
2022-12-15T08:38:27.045Z,84.22
2022-12-15T08:40:58.270Z,93.70
2022-12-15T08:43:25.050Z,85.45
2022-12-15T08:46:06.695Z,86.40
2022-12-15T08:48:35.248Z,83.53
2022-12-15T08:51:13.821Z,81.68
2022-12-15T08:53:52.980Z,78.38
2022-12-15T08:56:30.789Z,77.35
2022-12-15T08:59:06.141Z,77.80
2022-12-15T09:01:58.257Z,78.85
2022-12-15T09:04:40.805Z,74.22
2022-12-15T09:07:07.875Z,80.38
2022-12-15T09:09:42.936Z,86.40
2022-12-15T09:12:16.123Z,90.63
2022-12-15T09:14:49.194Z,83.25
2022-12-15T09:17:22.819Z,81.80
2022-12-15T09:20:30.060Z,83.13
2022-12-15T09:22:59.950Z,77.45
2022-12-15T09:25:26.838Z,81.97
2022-12-15T09:27:56.336Z,82.25
2022-12-15T09:30:25.409Z,82.50
2022-12-15T09:32:54.880Z,81.03
2022-12-15T09:38:00.331Z,69.70
2022-12-15T09:40:27.123Z,63.03
2022-12-15T09:43:25.626Z,63.55
2022-12-15T09:45:52.181Z,58.40
2022-12-15T09:48:22.017Z,70.18
2022-12-15T09:50:58.199Z,67.10
2022-12-15T09:53:53.691Z,65.72
2022-12-15T09:56:19.365Z,94.53
2022-12-15T09:58:56.955Z,83.03
2022-12-15T10:01:31.508Z,88.47
2022-12-15T10:04:07.570Z,90.28
2022-12-15T10:06:41.253Z,91.35
2022-12-15T10:09:16.481Z,92.50
2022-12-15T10:11:55.086Z,86.38
2022-12-15T10:14:30.807Z,90.15
2022-12-15T10:17:13.983Z,96.82
2022-12-15T10:19:45.068Z,96.60
2022-12-15T10:22:24.131Z,96.25
2022-12-15T10:25:11.560Z,92.45
2022-12-15T10:28:07.963Z,92.30
2022-12-15T10:30:35.484Z,93.40
2022-12-15T10:33:11.619Z,95.85
2022-12-15T10:35:40.815Z,99.60
2022-12-15T10:38:24.892Z,101.03
2022-12-15T10:40:54.802Z,101.60
2022-12-15T10:43:33.144Z,99.72
2022-12-15T10:46:05.567Z,93.55
2022-12-15T10:48:35.602Z,92.40
2022-12-15T10:51:27.729Z,89.80
2022-12-15T10:54:04.435Z,88.85
2022-12-15T10:56:34.129Z,84.05
2022-12-15T10:59:03.886Z,88.68
2022-12-15T11:03:58.885Z,82.28
2022-12-15T11:06:27.760Z,82.20
2022-12-15T11:08:57.936Z,84.82
2022-12-15T11:11:28.092Z,110.13
2022-12-15T11:14:06.395Z,111.22
2022-12-15T11:16:33.142Z,125.68
2022-12-15T11:19:07.811Z,120.05
2022-12-15T11:21:40.311Z,113.93
2022-12-15T11:24:14.784Z,119.13
2022-12-15T11:26:50.657Z,123.45
2022-12-15T11:29:27.809Z,116.95
2022-12-15T11:31:55.438Z,128.88
2022-12-15T11:34:24.913Z,121.93
2022-12-15T11:37:08.541Z,137.35
2022-12-15T11:39:53.193Z,127.88
2022-12-15T11:42:30.452Z,122.00
2022-12-15T11:45:08.210Z,129.40
2022-12-15T11:47:43.502Z,122.25
2022-12-15T11:50:22.506Z,117.40
2022-12-15T11:53:12.775Z,112.13
2022-12-15T11:55:49.619Z,110.05
2022-12-15T11:58:37.446Z,116.05
2022-12-15T12:01:16.214Z,113.78
2022-12-15T12:03:55.419Z,112.83
2022-12-15T12:06:32.588Z,113.55
2022-12-15T12:09:19.844Z,120.60
2022-12-15T12:11:54.015Z,108.28
2022-12-15T12:14:32.093Z,114.32
2022-12-15T12:17:06.642Z,110.88
2022-12-15T12:19:41.053Z,109.78
2022-12-15T12:22:21.520Z,102.28
2022-12-15T12:24:53.178Z,106.38
2022-12-15T12:27:30.433Z,100.78
2022-12-15T12:30:03.299Z,104.05
2022-12-15T12:32:38.371Z,108.00
2022-12-15T12:35:31.432Z,116.32
2022-12-15T12:38:03.350Z,120.15
2022-12-15T12:40:43.102Z,116.55
2022-12-15T12:43:17.174Z,112.53
2022-12-15T12:45:50.251Z,111.85
2022-12-15T12:48:25.386Z,115.15
2022-12-15T12:51:07.900Z,116.25
2022-12-15T12:53:35.261Z,113.07
2022-12-15T12:56:02.444Z,119.82
2022-12-15T12:58:37.688Z,110.05
2022-12-15T13:01:17.004Z,103.88
2022-12-15T13:03:44.167Z,114.47
2022-12-15T13:06:41.054Z,107.07
2022-12-15T13:09:22.775Z,102.80
2022-12-15T13:11:58.296Z,106.55
2022-12-15T13:14:36.952Z,103.65
2022-12-15T13:17:25.919Z,101.47
2022-12-15T13:20:18.567Z,95.82
2022-12-15T13:22:45.452Z,104.38
2022-12-15T13:25:36.292Z,100.65
2022-12-15T13:28:17.718Z,94.82
2022-12-15T13:31:14.639Z,99.25
2022-12-15T13:33:46.048Z,95.38
2022-12-15T13:39:55.960Z,103.47
2022-12-15T13:42:38.817Z,96.07
2022-12-15T13:48:18.642Z,92.43
2022-12-15T13:50:52.687Z,94.85
2022-12-15T13:53:22.969Z,93.90
2022-12-15T13:56:15.672Z,97.55
2022-12-15T13:58:47.002Z,109.22
2022-12-15T14:01:31.787Z,107.78
2022-12-15T14:04:11.705Z,103.63
2022-12-15T14:06:44.352Z,103.07
2022-12-15T14:09:14.501Z,112.50
2022-12-15T14:11:53.172Z,105.55
2022-12-15T14:14:24.370Z,110.35
2022-12-15T14:16:58.362Z,104.30
2022-12-15T14:19:26.759Z,112.28
2022-12-15T14:21:55.253Z,115.97
2022-12-15T14:27:22.236Z,114.43
2022-12-15T14:29:48.950Z,121.20
2022-12-15T14:32:17.442Z,115.03
2022-12-15T14:34:50.774Z,115.95
2022-12-15T14:37:20.985Z,110.63
2022-12-15T14:39:50.398Z,112.25
2022-12-15T14:42:20.708Z,118.55
2022-12-15T14:47:35.749Z,117.80
2022-12-15T14:50:09.412Z,113.70
2022-12-15T14:52:39.739Z,117.78
2022-12-15T14:55:29.880Z,114.38
2022-12-15T14:57:56.616Z,114.60
2022-12-15T15:00:28.524Z,116.70
2022-12-15T15:03:05.495Z,104.53
2022-12-15T15:03:14.461Z,115.05
2022-12-15T15:03:19.743Z,115.70
2022-12-15T15:05:51.516Z,114.72
2022-12-15T15:08:26.017Z,113.95
2022-12-15T15:10:53.372Z,115.00
2022-12-15T15:13:23.462Z,119.00
2022-12-15T15:15:55.113Z,115.15
2022-12-15T15:18:25.970Z,119.13
2022-12-15T15:20:57.382Z,117.70
2022-12-15T15:23:24.478Z,130.82
2022-12-15T15:25:52.193Z,124.97
2022-12-15T15:28:24.741Z,124.72
2022-12-15T15:30:56.519Z,129.52
2022-12-15T15:33:24.529Z,123.15
2022-12-15T15:35:55.661Z,126.25
2022-12-15T15:38:24.630Z,122.93
2022-12-15T15:40:52.762Z,127.43
2022-12-15T15:43:19.469Z,126.82
2022-12-15T15:45:47.194Z,126.65
2022-12-15T15:48:22.246Z,124.20
2022-12-15T15:50:49.211Z,121.40
2022-12-15T15:53:22.607Z,117.63
2022-12-15T15:55:51.201Z,119.18
2022-12-15T15:58:18.130Z,123.55
2022-12-15T16:00:44.791Z,116.75
2022-12-15T16:03:11.786Z,122.47
2022-12-15T16:05:39.447Z,128.15
2022-12-15T16:08:13.317Z,122.07
2022-12-15T16:10:43.110Z,122.47
2022-12-15T16:13:11.270Z,129.15
2022-12-15T16:15:37.972Z,125.25
2022-12-15T16:18:04.903Z,121.95
2022-12-15T16:20:31.586Z,120.32
2022-12-15T16:23:01.097Z,129.15
2022-12-15T16:25:39.757Z,117.53
2022-12-15T16:28:13.472Z,123.95
2022-12-15T16:30:40.541Z,126.47
2022-12-15T16:33:07.208Z,118.40
2022-12-15T16:35:33.892Z,122.70
2022-12-15T16:38:00.620Z,124.28
2022-12-15T16:40:27.860Z,122.07
2022-12-15T16:42:56.008Z,122.07
2022-12-15T16:45:26.158Z,123.53
2022-12-15T16:47:53.577Z,120.13
2022-12-15T16:50:25.120Z,120.67
2022-12-15T16:52:54.144Z,120.97
2022-12-15T16:55:24.982Z,126.32
2022-12-15T16:57:53.127Z,130.60
2022-12-15T17:00:22.774Z,130.70
2022-12-15T17:05:18.563Z,129.05
2022-12-15T17:07:51.170Z,125.82
2022-12-15T17:10:21.046Z,126.32
2022-12-15T17:12:47.797Z,121.30
2022-12-15T17:15:20.168Z,124.03
2022-12-15T17:17:46.887Z,124.05
2022-12-15T17:20:29.018Z,123.78
2022-12-15T17:23:02.096Z,131.00
2022-12-15T17:26:01.187Z,133.63
2022-12-15T17:28:24.399Z,140.55
2022-12-15T17:30:52.579Z,143.90
2022-12-15T17:33:22.642Z,151.02
2022-12-15T17:35:54.020Z,146.45
2022-12-15T17:38:22.526Z,146.07
2022-12-15T17:40:50.686Z,145.80
2022-12-15T17:43:20.128Z,145.52
2022-12-15T17:45:47.393Z,146.50
2022-12-15T17:48:14.083Z,140.40
2022-12-15T17:50:40.997Z,147.20
2022-12-15T17:53:12.072Z,137.43
2022-12-15T17:55:38.957Z,139.68
2022-12-15T17:58:15.333Z,142.35
2022-12-15T18:00:47.484Z,137.88
2022-12-15T18:03:16.164Z,140.38
2022-12-15T18:05:43.212Z,137.70
2022-12-15T18:08:15.883Z,140.80
2022-12-15T18:21:53.194Z,144.57
2022-12-15T18:48:41.325Z,139.52
2022-12-15T19:46:34.994Z,152.57
2022-12-15T19:49:01.752Z,155.02
2022-12-15T19:51:28.715Z,147.10
2022-12-15T19:53:55.583Z,146.05
2022-12-15T19:56:23.499Z,151.00
2022-12-15T19:58:50.249Z,151.45
2022-12-15T20:01:19.015Z,152.23
2022-12-15T20:03:49.088Z,150.13
2022-12-15T20:06:18.912Z,154.25
2022-12-15T20:08:47.584Z,144.35
2022-12-15T20:11:19.778Z,149.10
2022-12-15T20:13:47.644Z,143.57
2022-12-15T20:16:14.639Z,144.75
2022-12-15T20:18:41.226Z,141.27
2022-12-15T20:21:09.877Z,147.57
2022-12-15T20:23:47.675Z,150.90
2022-12-15T20:26:18.367Z,137.45
2022-12-15T20:28:49.672Z,146.48
2022-12-15T20:31:20.227Z,149.45
2022-12-15T20:33:50.977Z,137.20
2022-12-15T20:36:24.205Z,136.77
2022-12-15T20:38:51.314Z,145.68
2022-12-15T20:41:20.264Z,139.98
2022-12-15T21:16:56.734Z,140.10
2022-12-15T21:35:55.235Z,136.73
2022-12-15T21:41:47.566Z,135.70
2022-12-15T21:44:27.195Z,139.30
2022-12-15T21:49:34.759Z,135.23
2022-12-15T21:52:03.295Z,135.10
2022-12-15T21:54:34.011Z,129.43
2022-12-15T21:57:01.435Z,134.57
2022-12-15T21:59:33.501Z,138.57
2022-12-15T22:02:19.622Z,127.40
2022-12-15T22:04:58.159Z,123.22
2022-12-15T22:07:34.213Z,121.40
2022-12-15T22:10:10.715Z,123.50
2022-12-15T22:12:59.789Z,119.53
2022-12-15T22:15:36.760Z,123.65
2022-12-15T22:18:22.498Z,106.75
2022-12-15T22:20:59.057Z,115.18
2022-12-15T22:23:44.462Z,115.40
2022-12-15T22:27:09.420Z,123.32
2022-12-15T22:32:24.131Z,123.82
2022-12-15T22:35:19.793Z,120.22
2022-12-15T22:37:57.070Z,115.65
2022-12-15T22:40:25.741Z,117.43
2022-12-15T22:42:56.955Z,115.70
2022-12-15T22:45:24.473Z,116.05
2022-12-15T22:47:53.220Z,108.55
2022-12-15T22:50:25.484Z,117.68
2022-12-15T22:52:52.762Z,111.57
2022-12-15T22:57:56.750Z,115.07
2022-12-15T23:00:26.576Z,117.22
2022-12-15T23:03:01.193Z,112.70
2022-12-15T23:05:28.494Z,106.68
2022-12-15T23:08:05.505Z,111.35
2022-12-15T23:10:32.752Z,112.35
2022-12-15T23:13:01.329Z,107.55
2022-12-15T23:15:29.407Z,104.75
2022-12-15T23:18:00.816Z,112.93
2022-12-15T23:20:27.413Z,110.25
2022-12-15T23:22:54.858Z,104.00
2022-12-15T23:25:21.471Z,104.13
2022-12-15T23:27:48.084Z,102.82
2022-12-15T23:30:16.237Z,99.80
2022-12-15T23:32:42.910Z,102.30
2022-12-15T23:35:10.189Z,105.50
2022-12-15T23:37:36.784Z,99.97
2022-12-15T23:40:04.389Z,110.15
2022-12-15T23:42:31.039Z,102.53
2022-12-15T23:44:57.671Z,105.53
2022-12-15T23:47:25.787Z,99.70
2022-12-15T23:49:52.433Z,106.05
2022-12-15T23:52:20.246Z,102.82
2022-12-15T23:54:46.843Z,97.55
2022-12-15T23:57:13.485Z,104.40
2022-12-15T23:59:40.112Z,105.70
